sensor_id;sensor_type;location;lat;lon;timestamp;pressure;altitude;pressure_sealevel;temperature;humidity
44751;BME280;30477;48.224;11.470;2023-04-26T00:02:21;95989.31;;;6.39;77.65
44751;BME280;30477;48.224;11.470;2023-04-26T00:04:49;95978.44;;;6.36;77.31
44751;BME280;30477;48.224;11.470;2023-04-26T00:07:15;95976.56;;;6.38;77.42
44751;BME280;30477;48.224;11.470;2023-04-26T00:09:40;95983.00;;;6.32;77.29
44751;BME280;30477;48.224;11.470;2023-04-26T00:12:06;95974.59;;;6.30;77.05
44751;BME280;30477;48.224;11.470;2023-04-26T00:14:31;95965.94;;;6.31;77.34
44751;BME280;30477;48.224;11.470;2023-04-26T00:16:57;95970.59;;;6.37;77.17
44751;BME280;30477;48.224;11.470;2023-04-26T00:19:23;95969.44;;;6.53;77.22
44751;BME280;30477;48.224;11.470;2023-04-26T00:21:48;95979.00;;;6.50;76.91
44751;BME280;30477;48.224;11.470;2023-04-26T00:24:14;95975.53;;;6.52;76.73
44751;BME280;30477;48.224;11.470;2023-04-26T00:26:39;95967.56;;;6.55;76.62
44751;BME280;30477;48.224;11.470;2023-04-26T00:29:04;95978.34;;;6.60;76.64
44751;BME280;30477;48.224;11.470;2023-04-26T00:31:29;95971.31;;;6.62;76.44
44751;BME280;30477;48.224;11.470;2023-04-26T00:33:55;95973.66;;;6.54;76.08
44751;BME280;30477;48.224;11.470;2023-04-26T00:36:20;95969.44;;;6.53;76.14
44751;BME280;30477;48.224;11.470;2023-04-26T00:38:45;95976.22;;;6.54;76.03
44751;BME280;30477;48.224;11.470;2023-04-26T00:41:11;95971.31;;;6.50;75.88
44751;BME280;30477;48.224;11.470;2023-04-26T00:43:36;95972.22;;;6.38;75.94
44751;BME280;30477;48.224;11.470;2023-04-26T00:46:02;95977.38;;;6.38;76.26
44751;BME280;30477;48.224;11.470;2023-04-26T00:48:27;95972.94;;;6.40;76.45
44751;BME280;30477;48.224;11.470;2023-04-26T00:50:52;95979.25;;;6.36;76.68
44751;BME280;30477;48.224;11.470;2023-04-26T00:53:17;95977.50;;;6.48;76.41
44751;BME280;30477;48.224;11.470;2023-04-26T00:55:43;95986.03;;;6.37;76.34
44751;BME280;30477;48.224;11.470;2023-04-26T00:58:08;95977.16;;;6.53;76.79
44751;BME280;30477;48.224;11.470;2023-04-26T01:00:33;95983.00;;;6.55;76.35
44751;BME280;30477;48.224;11.470;2023-04-26T01:02:59;95982.06;;;6.56;76.29
44751;BME280;30477;48.224;11.470;2023-04-26T01:05:24;95983.47;;;6.48;76.37
44751;BME280;30477;48.224;11.470;2023-04-26T01:07:50;95982.78;;;6.58;76.65
44751;BME280;30477;48.224;11.470;2023-04-26T01:10:16;95987.91;;;6.58;76.53
44751;BME280;30477;48.224;11.470;2023-04-26T01:12:41;95987.56;;;6.51;76.34
44751;BME280;30477;48.224;11.470;2023-04-26T01:15:07;95988.13;;;6.43;76.60
44751;BME280;30477;48.224;11.470;2023-04-26T01:17:33;95989.53;;;6.36;77.03
44751;BME280;30477;48.224;11.470;2023-04-26T01:19:58;95984.63;;;6.44;77.34
44751;BME280;30477;48.224;11.470;2023-04-26T01:22:23;95981.94;;;6.46;76.96
44751;BME280;30477;48.224;11.470;2023-04-26T01:24:49;95990.38;;;6.37;77.09
44751;BME280;30477;48.224;11.470;2023-04-26T01:27:15;95989.75;;;6.33;77.44
44751;BME280;30477;48.224;11.470;2023-04-26T01:29:40;95983.34;;;6.39;77.80
44751;BME280;30477;48.224;11.470;2023-04-26T01:32:06;95986.28;;;6.34;77.42
44751;BME280;30477;48.224;11.470;2023-04-26T01:34:31;95995.72;;;6.34;77.95
44751;BME280;30477;48.224;11.470;2023-04-26T01:36:58;95993.97;;;6.23;77.61
44751;BME280;30477;48.224;11.470;2023-04-26T01:39:24;95989.28;;;6.17;77.90
44751;BME280;30477;48.224;11.470;2023-04-26T01:41:49;95996.06;;;6.18;78.13
44751;BME280;30477;48.224;11.470;2023-04-26T01:44:15;96000.38;;;6.17;77.96
44751;BME280;30477;48.224;11.470;2023-04-26T01:46:40;95994.41;;;6.17;78.23
44751;BME280;30477;48.224;11.470;2023-04-26T01:49:05;96000.06;;;6.33;78.45
44751;BME280;30477;48.224;11.470;2023-04-26T01:51:31;95991.53;;;6.44;78.01
44751;BME280;30477;48.224;11.470;2023-04-26T01:53:56;95992.91;;;6.25;77.90
44751;BME280;30477;48.224;11.470;2023-04-26T01:56:22;95998.78;;;6.39;78.14
44751;BME280;30477;48.224;11.470;2023-04-26T01:58:48;95992.59;;;6.41;78.11
44751;BME280;30477;48.224;11.470;2023-04-26T02:01:13;95995.59;;;6.46;77.98
44751;BME280;30477;48.224;11.470;2023-04-26T02:03:38;96000.19;;;6.43;77.56
44751;BME280;30477;48.224;11.470;2023-04-26T02:06:03;95996.56;;;6.34;77.28
44751;BME280;30477;48.224;11.470;2023-04-26T02:08:29;95998.63;;;6.29;77.49
44751;BME280;30477;48.224;11.470;2023-04-26T02:10:54;96007.50;;;6.36;77.66
44751;BME280;30477;48.224;11.470;2023-04-26T02:13:19;96004.72;;;6.39;77.23
44751;BME280;30477;48.224;11.470;2023-04-26T02:15:45;95997.22;;;6.36;77.23
44751;BME280;30477;48.224;11.470;2023-04-26T02:18:10;95999.13;;;6.34;77.07
44751;BME280;30477;48.224;11.470;2023-04-26T02:20:37;95994.78;;;6.23;77.05
44751;BME280;30477;48.224;11.470;2023-04-26T02:23:07;95997.22;;;6.14;77.09
44751;BME280;30477;48.224;11.470;2023-04-26T02:25:32;95999.66;;;6.04;76.98
44751;BME280;30477;48.224;11.470;2023-04-26T02:27:57;95991.59;;;5.97;77.23
44751;BME280;30477;48.224;11.470;2023-04-26T02:30:23;96000.00;;;5.99;77.46
44751;BME280;30477;48.224;11.470;2023-04-26T02:32:48;95993.91;;;6.00;77.77
44751;BME280;30477;48.224;11.470;2023-04-26T02:35:13;95996.97;;;6.05;77.69
44751;BME280;30477;48.224;11.470;2023-04-26T02:37:39;95994.88;;;6.10;77.92
44751;BME280;30477;48.224;11.470;2023-04-26T02:40:04;95993.69;;;6.03;77.59
44751;BME280;30477;48.224;11.470;2023-04-26T02:42:30;95996.00;;;5.95;77.53
44751;BME280;30477;48.224;11.470;2023-04-26T02:44:55;95991.47;;;5.99;77.97
44751;BME280;30477;48.224;11.470;2023-04-26T02:47:20;95991.59;;;6.08;77.83
44751;BME280;30477;48.224;11.470;2023-04-26T02:49:46;95990.78;;;6.08;77.78
44751;BME280;30477;48.224;11.470;2023-04-26T02:52:11;95986.47;;;6.08;77.35
44751;BME280;30477;48.224;11.470;2023-04-26T02:54:36;95989.97;;;6.07;77.44
44751;BME280;30477;48.224;11.470;2023-04-26T02:57:02;95981.56;;;6.05;76.97
44751;BME280;30477;48.224;11.470;2023-04-26T02:59:27;95979.88;;;5.93;77.02
44751;BME280;30477;48.224;11.470;2023-04-26T03:01:52;95985.25;;;5.90;77.23
44751;BME280;30477;48.224;11.470;2023-04-26T03:04:18;95992.00;;;5.91;77.22
44751;BME280;30477;48.224;11.470;2023-04-26T03:06:43;95979.25;;;5.89;77.20
44751;BME280;30477;48.224;11.470;2023-04-26T03:09:08;95990.47;;;5.88;77.18
44751;BME280;30477;48.224;11.470;2023-04-26T03:11:33;95991.38;;;5.76;76.80
44751;BME280;30477;48.224;11.470;2023-04-26T03:13:59;95991.75;;;5.83;77.14
44751;BME280;30477;48.224;11.470;2023-04-26T03:16:26;95987.09;;;5.88;77.00
44751;BME280;30477;48.224;11.470;2023-04-26T03:18:51;95996.88;;;5.83;76.92
44751;BME280;30477;48.224;11.470;2023-04-26T03:21:18;95997.38;;;5.88;76.68
44751;BME280;30477;48.224;11.470;2023-04-26T03:23:43;95996.19;;;5.92;76.33
44751;BME280;30477;48.224;11.470;2023-04-26T03:26:08;95995.03;;;5.85;76.46
44751;BME280;30477;48.224;11.470;2023-04-26T03:28:33;95998.59;;;5.95;76.51
44751;BME280;30477;48.224;11.470;2023-04-26T03:30:59;95996.47;;;6.00;76.22
44751;BME280;30477;48.224;11.470;2023-04-26T03:33:25;96015.34;;;5.88;75.74
44751;BME280;30477;48.224;11.470;2023-04-26T03:35:51;96001.66;;;5.76;75.90
44751;BME280;30477;48.224;11.470;2023-04-26T03:38:16;95999.97;;;5.64;75.99
44751;BME280;30477;48.224;11.470;2023-04-26T03:40:41;96002.81;;;5.72;76.44
44751;BME280;30477;48.224;11.470;2023-04-26T03:43:06;96001.66;;;5.76;76.26
44751;BME280;30477;48.224;11.470;2023-04-26T03:45:32;96005.81;;;5.66;76.34
44751;BME280;30477;48.224;11.470;2023-04-26T03:47:57;96008.63;;;5.63;76.43
44751;BME280;30477;48.224;11.470;2023-04-26T03:50:22;96004.63;;;5.59;76.77
44751;BME280;30477;48.224;11.470;2023-04-26T03:52:47;96007.06;;;5.60;76.93
44751;BME280;30477;48.224;11.470;2023-04-26T03:55:13;96004.06;;;5.66;76.94
44751;BME280;30477;48.224;11.470;2023-04-26T03:57:38;96007.97;;;5.83;77.14
44751;BME280;30477;48.224;11.470;2023-04-26T04:00:03;96002.63;;;5.86;76.63
44751;BME280;30477;48.224;11.470;2023-04-26T04:02:37;95998.56;;;5.71;76.53
44751;BME280;30477;48.224;11.470;2023-04-26T04:05:02;96001.28;;;5.69;76.78
44751;BME280;30477;48.224;11.470;2023-04-26T04:07:28;96013.19;;;5.70;76.77
44751;BME280;30477;48.224;11.470;2023-04-26T04:09:53;96021.13;;;5.67;76.85
44751;BME280;30477;48.224;11.470;2023-04-26T04:12:18;96011.09;;;5.76;76.80
44751;BME280;30477;48.224;11.470;2023-04-26T04:14:43;96016.72;;;5.81;76.95
44751;BME280;30477;48.224;11.470;2023-04-26T04:17:09;96012.28;;;5.83;76.90
44751;BME280;30477;48.224;11.470;2023-04-26T04:19:34;96008.84;;;5.71;76.74
44751;BME280;30477;48.224;11.470;2023-04-26T04:21:59;96017.53;;;5.81;76.90
44751;BME280;30477;48.224;11.470;2023-04-26T04:24:25;96019.63;;;5.76;76.42
44751;BME280;30477;48.224;11.470;2023-04-26T04:26:50;96016.91;;;5.66;76.77
44751;BME280;30477;48.224;11.470;2023-04-26T04:29:15;96014.94;;;5.70;76.97
44751;BME280;30477;48.224;11.470;2023-04-26T04:31:41;96027.78;;;5.70;76.78
44751;BME280;30477;48.224;11.470;2023-04-26T04:34:06;96029.09;;;5.76;77.12
44751;BME280;30477;48.224;11.470;2023-04-26T04:36:32;96033.28;;;5.77;77.00
44751;BME280;30477;48.224;11.470;2023-04-26T04:38:57;96038.94;;;5.93;77.08
44751;BME280;30477;48.224;11.470;2023-04-26T04:41:23;96035.44;;;5.94;76.88
44751;BME280;30477;48.224;11.470;2023-04-26T04:43:48;96040.06;;;5.78;76.84
44751;BME280;30477;48.224;11.470;2023-04-26T04:46:13;96043.09;;;5.83;77.22
44751;BME280;30477;48.224;11.470;2023-04-26T04:48:38;96047.81;;;5.89;77.15
44751;BME280;30477;48.224;11.470;2023-04-26T04:51:04;96040.53;;;5.83;77.05
44751;BME280;30477;48.224;11.470;2023-04-26T04:53:30;96044.97;;;5.81;77.13
44751;BME280;30477;48.224;11.470;2023-04-26T04:55:55;96045.84;;;5.93;77.37
44751;BME280;30477;48.224;11.470;2023-04-26T04:58:21;96044.47;;;6.00;77.37
44751;BME280;30477;48.224;11.470;2023-04-26T05:00:46;96057.13;;;6.03;76.93
44751;BME280;30477;48.224;11.470;2023-04-26T05:03:12;96055.56;;;6.00;76.76
44751;BME280;30477;48.224;11.470;2023-04-26T05:05:37;96065.84;;;6.00;76.90
44751;BME280;30477;48.224;11.470;2023-04-26T05:08:03;96061.13;;;5.94;77.01
44751;BME280;30477;48.224;11.470;2023-04-26T05:10:28;96058.41;;;6.08;77.21
44751;BME280;30477;48.224;11.470;2023-04-26T05:12:53;96069.28;;;6.12;77.06
44751;BME280;30477;48.224;11.470;2023-04-26T05:15:19;96065.19;;;6.09;76.44
44751;BME280;30477;48.224;11.470;2023-04-26T05:17:44;96058.47;;;5.96;76.50
44751;BME280;30477;48.224;11.470;2023-04-26T05:20:09;96063.91;;;5.80;76.47
44751;BME280;30477;48.224;11.470;2023-04-26T05:22:35;96065.50;;;5.81;76.81
44751;BME280;30477;48.224;11.470;2023-04-26T05:25:01;96064.94;;;6.01;77.32
44751;BME280;30477;48.224;11.470;2023-04-26T05:27:27;96063.25;;;6.24;76.84
44751;BME280;30477;48.224;11.470;2023-04-26T05:29:52;96065.31;;;6.19;76.48
44751;BME280;30477;48.224;11.470;2023-04-26T05:32:17;96074.56;;;6.22;76.71
44751;BME280;30477;48.224;11.470;2023-04-26T05:34:42;96065.75;;;6.60;76.71
44751;BME280;30477;48.224;11.470;2023-04-26T05:37:08;96070.22;;;7.14;76.50
44751;BME280;30477;48.224;11.470;2023-04-26T05:39:33;96079.91;;;7.10;74.98
44751;BME280;30477;48.224;11.470;2023-04-26T05:41:58;96073.59;;;7.15;75.22
44751;BME280;30477;48.224;11.470;2023-04-26T05:44:23;96074.44;;;7.04;74.48
44751;BME280;30477;48.224;11.470;2023-04-26T05:46:49;96079.09;;;6.99;74.19
44751;BME280;30477;48.224;11.470;2023-04-26T05:49:14;96081.31;;;7.03;73.90
44751;BME280;30477;48.224;11.470;2023-04-26T05:51:40;96080.72;;;7.11;74.17
44751;BME280;30477;48.224;11.470;2023-04-26T05:54:05;96088.22;;;7.03;73.65
44751;BME280;30477;48.224;11.470;2023-04-26T05:56:30;96080.97;;;6.97;73.68
44751;BME280;30477;48.224;11.470;2023-04-26T05:58:56;96081.69;;;6.87;73.34
44751;BME280;30477;48.224;11.470;2023-04-26T06:01:21;96087.50;;;6.78;73.72
44751;BME280;30477;48.224;11.470;2023-04-26T06:03:46;96085.28;;;6.74;73.29
44751;BME280;30477;48.224;11.470;2023-04-26T06:06:12;96096.88;;;6.68;73.71
44751;BME280;30477;48.224;11.470;2023-04-26T06:08:37;96093.13;;;6.72;73.96
44751;BME280;30477;48.224;11.470;2023-04-26T06:11:02;96095.34;;;6.77;73.47
44751;BME280;30477;48.224;11.470;2023-04-26T06:13:28;96096.72;;;6.58;73.13
44751;BME280;30477;48.224;11.470;2023-04-26T06:15:53;96108.06;;;6.56;73.48
44751;BME280;30477;48.224;11.470;2023-04-26T06:18:18;96110.66;;;6.67;73.50
44751;BME280;30477;48.224;11.470;2023-04-26T06:20:45;96092.75;;;6.65;73.16
44751;BME280;30477;48.224;11.470;2023-04-26T06:23:10;96090.78;;;6.80;73.10
44751;BME280;30477;48.224;11.470;2023-04-26T06:25:35;96093.94;;;6.73;72.46
44751;BME280;30477;48.224;11.470;2023-04-26T06:28:01;96094.75;;;6.73;72.92
44751;BME280;30477;48.224;11.470;2023-04-26T06:30:27;96093.25;;;6.93;72.83
44751;BME280;30477;48.224;11.470;2023-04-26T06:32:53;96096.31;;;6.87;72.14
44751;BME280;30477;48.224;11.470;2023-04-26T06:35:18;96095.56;;;6.74;72.36
44751;BME280;30477;48.224;11.470;2023-04-26T06:37:43;96092.44;;;6.81;72.50
44751;BME280;30477;48.224;11.470;2023-04-26T06:40:08;96096.66;;;6.94;72.71
44751;BME280;30477;48.224;11.470;2023-04-26T06:42:35;96102.28;;;7.10;73.22
44751;BME280;30477;48.224;11.470;2023-04-26T06:45:00;96100.84;;;7.28;72.67
44751;BME280;30477;48.224;11.470;2023-04-26T06:47:25;96107.28;;;7.11;72.19
44751;BME280;30477;48.224;11.470;2023-04-26T06:49:51;96107.66;;;7.18;72.74
44751;BME280;30477;48.224;11.470;2023-04-26T06:52:16;96110.53;;;7.47;72.09
44751;BME280;30477;48.224;11.470;2023-04-26T06:54:41;96113.53;;;7.64;72.00
44751;BME280;30477;48.224;11.470;2023-04-26T06:57:06;96117.16;;;7.72;70.91
44751;BME280;30477;48.224;11.470;2023-04-26T06:59:32;96116.56;;;7.80;70.89
44751;BME280;30477;48.224;11.470;2023-04-26T07:01:57;96115.97;;;7.77;70.36
44751;BME280;30477;48.224;11.470;2023-04-26T07:04:22;96117.13;;;8.16;70.28
44751;BME280;30477;48.224;11.470;2023-04-26T07:06:47;96111.41;;;8.45;69.70
44751;BME280;30477;48.224;11.470;2023-04-26T07:09:12;96114.25;;;8.30;68.43
44751;BME280;30477;48.224;11.470;2023-04-26T07:11:38;96112.94;;;8.04;68.34
44751;BME280;30477;48.224;11.470;2023-04-26T07:14:03;96107.31;;;7.78;68.33
44751;BME280;30477;48.224;11.470;2023-04-26T07:16:29;96107.97;;;7.91;68.71
44751;BME280;30477;48.224;11.470;2023-04-26T07:18:55;96105.38;;;8.02;68.28
44751;BME280;30477;48.224;11.470;2023-04-26T07:21:23;96114.84;;;8.02;68.38
44751;BME280;30477;48.224;11.470;2023-04-26T07:23:53;96111.00;;;7.96;67.92
44751;BME280;30477;48.224;11.470;2023-04-26T07:26:18;96114.66;;;7.82;67.80
44751;BME280;30477;48.224;11.470;2023-04-26T07:28:43;96112.63;;;7.97;67.74
44751;BME280;30477;48.224;11.470;2023-04-26T07:31:08;96109.34;;;7.95;67.80
44751;BME280;30477;48.224;11.470;2023-04-26T07:33:34;96111.34;;;7.91;67.46
44751;BME280;30477;48.224;11.470;2023-04-26T07:35:59;96110.09;;;7.86;67.43
44751;BME280;30477;48.224;11.470;2023-04-26T07:38:25;96113.31;;;7.99;67.71
44751;BME280;30477;48.224;11.470;2023-04-26T07:40:51;96105.00;;;8.28;67.16
44751;BME280;30477;48.224;11.470;2023-04-26T07:43:16;96111.00;;;8.70;66.91
44751;BME280;30477;48.224;11.470;2023-04-26T07:45:42;96106.53;;;8.93;65.87
44751;BME280;30477;48.224;11.470;2023-04-26T07:48:07;96110.44;;;8.67;65.66
44751;BME280;30477;48.224;11.470;2023-04-26T07:50:33;96110.19;;;8.70;65.45
44751;BME280;30477;48.224;11.470;2023-04-26T07:52:58;96119.53;;;8.61;64.63
44751;BME280;30477;48.224;11.470;2023-04-26T07:55:23;96118.63;;;8.72;65.16
44751;BME280;30477;48.224;11.470;2023-04-26T07:57:49;96119.06;;;8.56;64.42
44751;BME280;30477;48.224;11.470;2023-04-26T08:00:14;96115.00;;;8.53;64.68
44751;BME280;30477;48.224;11.470;2023-04-26T08:02:41;96115.22;;;8.92;64.34
44751;BME280;30477;48.224;11.470;2023-04-26T08:05:06;96114.22;;;9.14;63.56
44751;BME280;30477;48.224;11.470;2023-04-26T08:07:31;96104.06;;;9.73;63.44
44751;BME280;30477;48.224;11.470;2023-04-26T08:09:57;96089.53;;;11.07;63.04
44751;BME280;30477;48.224;11.470;2023-04-26T08:12:22;96089.81;;;12.49;60.87
44751;BME280;30477;48.224;11.470;2023-04-26T08:14:47;96085.31;;;12.77;57.85
44751;BME280;30477;48.224;11.470;2023-04-26T08:17:12;96089.41;;;12.35;57.23
44751;BME280;30477;48.224;11.470;2023-04-26T08:19:38;96093.06;;;12.25;56.66
44751;BME280;30477;48.224;11.470;2023-04-26T08:22:04;96093.00;;;12.16;56.22
44751;BME280;30477;48.224;11.470;2023-04-26T08:24:29;96098.84;;;12.18;55.75
44751;BME280;30477;48.224;11.470;2023-04-26T08:26:55;96090.25;;;12.18;54.45
44751;BME280;30477;48.224;11.470;2023-04-26T08:29:21;96092.88;;;11.45;54.90
44751;BME280;30477;48.224;11.470;2023-04-26T08:31:47;96095.16;;;11.30;55.19
44751;BME280;30477;48.224;11.470;2023-04-26T08:34:12;96091.34;;;11.52;56.39
44751;BME280;30477;48.224;11.470;2023-04-26T08:36:37;96095.47;;;11.72;55.43
44751;BME280;30477;48.224;11.470;2023-04-26T08:39:03;96096.47;;;11.62;54.96
44751;BME280;30477;48.224;11.470;2023-04-26T08:41:28;96090.41;;;11.53;54.92
44751;BME280;30477;48.224;11.470;2023-04-26T08:43:55;96097.69;;;11.40;54.11
44751;BME280;30477;48.224;11.470;2023-04-26T08:46:22;96093.56;;;11.47;54.31
44751;BME280;30477;48.224;11.470;2023-04-26T08:48:56;96091.06;;;11.73;54.89
44751;BME280;30477;48.224;11.470;2023-04-26T08:51:24;96086.75;;;12.09;54.26
44751;BME280;30477;48.224;11.470;2023-04-26T08:53:51;96091.50;;;11.96;54.02
44751;BME280;30477;48.224;11.470;2023-04-26T08:56:17;96094.28;;;11.85;53.20
44751;BME280;30477;48.224;11.470;2023-04-26T08:58:43;96083.16;;;12.46;52.44
44751;BME280;30477;48.224;11.470;2023-04-26T09:01:08;96088.16;;;12.39;51.41
44751;BME280;30477;48.224;11.470;2023-04-26T09:03:34;96095.59;;;12.16;51.40
44751;BME280;30477;48.224;11.470;2023-04-26T09:05:59;96091.06;;;11.73;50.68
44751;BME280;30477;48.224;11.470;2023-04-26T09:08:25;96100.41;;;11.38;50.88
44751;BME280;30477;48.224;11.470;2023-04-26T09:10:52;96097.75;;;10.92;51.49
44751;BME280;30477;48.224;11.470;2023-04-26T09:13:17;96102.44;;;10.60;52.87
44751;BME280;30477;48.224;11.470;2023-04-26T09:15:42;96102.88;;;10.45;53.76
44751;BME280;30477;48.224;11.470;2023-04-26T09:18:20;96100.38;;;10.73;54.28
44751;BME280;30477;48.224;11.470;2023-04-26T09:21:00;96084.81;;;12.11;54.25
44751;BME280;30477;48.224;11.470;2023-04-26T09:23:25;96090.63;;;13.28;51.62
44751;BME280;30477;48.224;11.470;2023-04-26T09:25:51;96079.03;;;13.48;49.57
44751;BME280;30477;48.224;11.470;2023-04-26T09:28:20;96086.88;;;12.70;48.15
44751;BME280;30477;48.224;11.470;2023-04-26T09:30:46;96088.59;;;12.35;48.70
44751;BME280;30477;48.224;11.470;2023-04-26T09:33:11;96086.09;;;11.62;49.37
44751;BME280;30477;48.224;11.470;2023-04-26T09:35:38;96096.44;;;11.16;49.91
44751;BME280;30477;48.224;11.470;2023-04-26T09:38:07;96087.50;;;11.01;50.38
44751;BME280;30477;48.224;11.470;2023-04-26T09:40:34;96087.16;;;10.66;51.01
44751;BME280;30477;48.224;11.470;2023-04-26T09:43:01;96088.28;;;10.64;51.34
44751;BME280;30477;48.224;11.470;2023-04-26T09:45:27;96081.41;;;10.92;51.22
44751;BME280;30477;48.224;11.470;2023-04-26T09:47:52;96084.59;;;11.04;52.21
44751;BME280;30477;48.224;11.470;2023-04-26T09:50:28;96088.66;;;11.16;51.69
44751;BME280;30477;48.224;11.470;2023-04-26T09:52:54;96082.72;;;11.79;52.56
44751;BME280;30477;48.224;11.470;2023-04-26T09:55:27;96084.38;;;11.98;51.01
44751;BME280;30477;48.224;11.470;2023-04-26T09:57:52;96082.69;;;11.89;50.58
44751;BME280;30477;48.224;11.470;2023-04-26T10:00:18;96083.00;;;12.04;50.48
44751;BME280;30477;48.224;11.470;2023-04-26T10:02:44;96087.81;;;12.16;50.67
44751;BME280;30477;48.224;11.470;2023-04-26T10:05:10;96083.56;;;11.97;49.95
44751;BME280;30477;48.224;11.470;2023-04-26T10:07:36;96082.69;;;11.89;49.69
44751;BME280;30477;48.224;11.470;2023-04-26T10:10:01;96073.81;;;11.82;50.49
44751;BME280;30477;48.224;11.470;2023-04-26T10:12:28;96072.31;;;11.89;50.30
44751;BME280;30477;48.224;11.470;2023-04-26T10:14:53;96074.91;;;11.89;49.59
44751;BME280;30477;48.224;11.470;2023-04-26T10:17:20;96068.81;;;11.80;48.93
44751;BME280;30477;48.224;11.470;2023-04-26T10:19:45;96074.50;;;11.66;48.68
44751;BME280;30477;48.224;11.470;2023-04-26T10:22:16;96069.94;;;11.50;48.97
44751;BME280;30477;48.224;11.470;2023-04-26T10:24:44;96072.16;;;11.45;48.98
44751;BME280;30477;48.224;11.470;2023-04-26T10:27:09;96070.81;;;11.41;48.64
44751;BME280;30477;48.224;11.470;2023-04-26T10:32:21;96067.69;;;11.09;50.27
44751;BME280;30477;48.224;11.470;2023-04-26T10:37:32;96071.19;;;11.18;50.47
44751;BME280;30477;48.224;11.470;2023-04-26T10:40:21;96065.34;;;11.16;50.58
44751;BME280;30477;48.224;11.470;2023-04-26T10:42:42;96066.47;;;11.31;52.08
44751;BME280;30477;48.224;11.470;2023-04-26T10:45:27;96057.59;;;11.62;52.04
44751;BME280;30477;48.224;11.470;2023-04-26T10:51:04;96040.69;;;11.75;51.33
44751;BME280;30477;48.224;11.470;2023-04-26T10:53:21;96036.28;;;11.68;51.34
44751;BME280;30477;48.224;11.470;2023-04-26T10:55:47;96046.38;;;11.89;51.86
44751;BME280;30477;48.224;11.470;2023-04-26T10:58:25;96034.47;;;11.86;51.33
44751;BME280;30477;48.224;11.470;2023-04-26T11:01:37;96031.97;;;12.12;52.29
44751;BME280;30477;48.224;11.470;2023-04-26T11:03:37;96027.38;;;12.06;50.60
44751;BME280;30477;48.224;11.470;2023-04-26T11:06:10;96027.38;;;11.88;50.51
44751;BME280;30477;48.224;11.470;2023-04-26T11:08:39;96026.06;;;12.02;49.75
44751;BME280;30477;48.224;11.470;2023-04-26T11:11:06;96029.56;;;11.65;48.42
44751;BME280;30477;48.224;11.470;2023-04-26T11:13:35;96021.78;;;11.65;48.97
44751;BME280;30477;48.224;11.470;2023-04-26T11:16:02;96024.78;;;11.70;49.48
44751;BME280;30477;48.224;11.470;2023-04-26T11:18:28;96024.56;;;11.64;50.13
44751;BME280;30477;48.224;11.470;2023-04-26T11:20:53;96023.59;;;11.83;50.20
44751;BME280;30477;48.224;11.470;2023-04-26T11:23:19;96021.81;;;11.83;49.37
44751;BME280;30477;48.224;11.470;2023-04-26T11:25:44;96016.41;;;11.76;49.23
44751;BME280;30477;48.224;11.470;2023-04-26T11:28:10;96012.66;;;11.89;49.22
44751;BME280;30477;48.224;11.470;2023-04-26T11:30:35;96014.06;;;12.01;48.63
44751;BME280;30477;48.224;11.470;2023-04-26T11:33:01;96007.56;;;11.97;48.41
44751;BME280;30477;48.224;11.470;2023-04-26T11:35:28;96001.66;;;12.13;49.32
44751;BME280;30477;48.224;11.470;2023-04-26T11:37:57;96014.69;;;12.03;49.89
44751;BME280;30477;48.224;11.470;2023-04-26T11:40:22;96002.03;;;12.18;49.71
44751;BME280;30477;48.224;11.470;2023-04-26T11:42:51;96004.72;;;12.34;48.71
44751;BME280;30477;48.224;11.470;2023-04-26T11:45:16;95999.47;;;12.26;48.08
44751;BME280;30477;48.224;11.470;2023-04-26T11:47:41;96010.41;;;12.12;48.25
44751;BME280;30477;48.224;11.470;2023-04-26T11:50:07;96012.09;;;11.85;47.78
44751;BME280;30477;48.224;11.470;2023-04-26T11:52:34;96014.47;;;11.61;47.83
44751;BME280;30477;48.224;11.470;2023-04-26T11:55:05;96015.16;;;11.81;48.13
44751;BME280;30477;48.224;11.470;2023-04-26T11:57:31;96009.59;;;11.75;47.69
44751;BME280;30477;48.224;11.470;2023-04-26T12:00:07;96017.66;;;11.72;47.48
44751;BME280;30477;48.224;11.470;2023-04-26T12:02:35;96021.06;;;11.73;46.64
44751;BME280;30477;48.224;11.470;2023-04-26T12:05:00;96022.91;;;11.45;46.53
44751;BME280;30477;48.224;11.470;2023-04-26T12:07:31;96015.13;;;11.45;46.55
44751;BME280;30477;48.224;11.470;2023-04-26T12:09:56;96010.34;;;11.68;46.55
44751;BME280;30477;48.224;11.470;2023-04-26T12:12:22;96014.34;;;11.98;46.95
44751;BME280;30477;48.224;11.470;2023-04-26T12:14:47;96013.16;;;11.92;47.01
44751;BME280;30477;48.224;11.470;2023-04-26T12:17:13;96022.06;;;12.08;46.84
44751;BME280;30477;48.224;11.470;2023-04-26T12:19:39;96022.59;;;11.93;46.85
44751;BME280;30477;48.224;11.470;2023-04-26T12:22:05;96019.75;;;11.87;46.92
44751;BME280;30477;48.224;11.470;2023-04-26T12:24:31;96025.91;;;11.68;46.74
44751;BME280;30477;48.224;11.470;2023-04-26T12:27:03;96021.34;;;11.52;46.99
44751;BME280;30477;48.224;11.470;2023-04-26T12:29:30;96022.09;;;11.62;46.88
44751;BME280;30477;48.224;11.470;2023-04-26T12:31:56;96016.69;;;11.73;46.87
44751;BME280;30477;48.224;11.470;2023-04-26T12:34:21;96013.59;;;11.70;46.66
44751;BME280;30477;48.224;11.470;2023-04-26T12:36:46;96016.03;;;11.71;46.96
44751;BME280;30477;48.224;11.470;2023-04-26T12:39:12;96008.94;;;11.55;47.01
44751;BME280;30477;48.224;11.470;2023-04-26T12:41:38;96011.22;;;11.58;47.67
44751;BME280;30477;48.224;11.470;2023-04-26T12:44:04;96002.03;;;11.64;47.63
44751;BME280;30477;48.224;11.470;2023-04-26T12:46:30;95992.75;;;11.79;47.94
44751;BME280;30477;48.224;11.470;2023-04-26T12:48:55;95996.78;;;11.92;47.78
44751;BME280;30477;48.224;11.470;2023-04-26T12:51:21;95992.94;;;11.96;47.71
44751;BME280;30477;48.224;11.470;2023-04-26T12:53:46;95990.03;;;11.81;46.41
44751;BME280;30477;48.224;11.470;2023-04-26T12:56:11;95991.53;;;11.66;46.32
44751;BME280;30477;48.224;11.470;2023-04-26T12:58:36;95981.66;;;11.69;46.40
44751;BME280;30477;48.224;11.470;2023-04-26T13:01:02;95987.13;;;11.84;46.81